sensor_id;sensor_type;location;lat;lon;timestamp;pressure;altitude;pressure_sealevel;temperature;humidity
58979;BME280;44763;50.464;30.612;2023-10-09T00:00:12;99926.55;;;6.15;69.41
58979;BME280;44763;50.464;30.612;2023-10-09T00:02:34;99938.38;;;6.12;69.47
58979;BME280;44763;50.464;30.612;2023-10-09T00:04:38;99951.28;;;6.10;69.64
58979;BME280;44763;50.464;30.612;2023-10-09T00:06:44;99952.34;;;6.10;69.62
58979;BME280;44763;50.464;30.612;2023-10-09T00:08:48;99956.10;;;6.11;69.91
58979;BME280;44763;50.464;30.612;2023-10-09T00:11:00;99962.39;;;6.11;70.00
58979;BME280;44763;50.464;30.612;2023-10-09T00:13:19;99959.29;;;6.09;70.19
58979;BME280;44763;50.464;30.612;2023-10-09T00:15:21;99960.14;;;6.06;70.54
58979;BME280;44763;50.464;30.612;2023-10-09T00:17:24;99964.63;;;6.03;70.83
58979;BME280;44763;50.464;30.612;2023-10-09T00:19:26;99964.36;;;6.03;71.22
58979;BME280;44763;50.464;30.612;2023-10-09T00:21:36;99960.12;;;6.04;71.85
58979;BME280;44763;50.464;30.612;2023-10-09T00:23:40;99964.12;;;6.05;71.99
58979;BME280;44763;50.464;30.612;2023-10-09T00:25:49;99963.46;;;6.04;72.08
58979;BME280;44763;50.464;30.612;2023-10-09T00:28:08;99977.02;;;6.03;73.42
58979;BME280;44763;50.464;30.612;2023-10-09T00:30:15;99968.20;;;6.00;74.03
58979;BME280;44763;50.464;30.612;2023-10-09T00:32:23;99977.02;;;6.06;73.58
58979;BME280;44763;50.464;30.612;2023-10-09T00:34:27;99958.10;;;6.09;73.46
58979;BME280;44763;50.464;30.612;2023-10-09T00:36:29;99966.11;;;6.08;72.84
58979;BME280;44763;50.464;30.612;2023-10-09T00:38:32;99965.45;;;6.06;72.82
58979;BME280;44763;50.464;30.612;2023-10-09T00:40:36;99974.38;;;6.05;72.47
58979;BME280;44763;50.464;30.612;2023-10-09T00:42:49;99970.93;;;6.02;72.73
58979;BME280;44763;50.464;30.612;2023-10-09T00:44:51;99982.78;;;6.00;72.78
58979;BME280;44763;50.464;30.612;2023-10-09T00:46:53;99988.38;;;5.99;73.10
58979;BME280;44763;50.464;30.612;2023-10-09T00:48:57;99989.71;;;5.97;73.49
58979;BME280;44763;50.464;30.612;2023-10-09T00:51:01;99988.61;;;5.95;73.55
58979;BME280;44763;50.464;30.612;2023-10-09T00:53:04;99992.98;;;5.94;73.68
58979;BME280;44763;50.464;30.612;2023-10-09T00:55:07;99989.11;;;5.92;74.13
58979;BME280;44763;50.464;30.612;2023-10-09T00:57:17;100000.48;;;5.92;74.13
58979;BME280;44763;50.464;30.612;2023-10-09T00:59:21;99994.04;;;5.91;74.45
58979;BME280;44763;50.464;30.612;2023-10-09T01:01:24;99987.88;;;5.94;74.45
58979;BME280;44763;50.464;30.612;2023-10-09T01:03:29;99995.08;;;5.99;73.92
58979;BME280;44763;50.464;30.612;2023-10-09T01:05:36;99995.59;;;5.99;73.99
58979;BME280;44763;50.464;30.612;2023-10-09T01:07:39;100001.00;;;5.98;74.07
58979;BME280;44763;50.464;30.612;2023-10-09T01:09:46;100010.44;;;5.98;74.40
58979;BME280;44763;50.464;30.612;2023-10-09T01:11:51;100010.10;;;5.97;74.28
58979;BME280;44763;50.464;30.612;2023-10-09T01:14:05;100015.16;;;5.96;74.58
58979;BME280;44763;50.464;30.612;2023-10-09T01:16:10;100006.45;;;5.93;74.77
58979;BME280;44763;50.464;30.612;2023-10-09T01:18:17;100006.77;;;5.87;74.43
58979;BME280;44763;50.464;30.612;2023-10-09T01:20:24;99999.11;;;5.76;74.27
58979;BME280;44763;50.464;30.612;2023-10-09T01:22:32;100018.15;;;5.83;74.04
58979;BME280;44763;50.464;30.612;2023-10-09T01:24:34;100031.76;;;5.83;74.20
58979;BME280;44763;50.464;30.612;2023-10-09T01:26:42;100032.50;;;5.82;74.28
58979;BME280;44763;50.464;30.612;2023-10-09T01:28:48;100023.61;;;5.81;74.69
58979;BME280;44763;50.464;30.612;2023-10-09T01:30:50;100033.25;;;5.80;74.78
58979;BME280;44763;50.464;30.612;2023-10-09T01:32:53;100036.09;;;5.80;74.81
58979;BME280;44763;50.464;30.612;2023-10-09T01:34:55;100043.62;;;5.80;74.86
58979;BME280;44763;50.464;30.612;2023-10-09T01:37:00;100041.36;;;5.88;74.59
58979;BME280;44763;50.464;30.612;2023-10-09T01:39:07;100040.29;;;6.00;73.93
58979;BME280;44763;50.464;30.612;2023-10-09T01:41:24;100037.96;;;6.04;73.62
58979;BME280;44763;50.464;30.612;2023-10-09T01:43:26;100040.76;;;6.01;73.34
58979;BME280;44763;50.464;30.612;2023-10-09T01:45:29;100045.75;;;5.97;73.57
58979;BME280;44763;50.464;30.612;2023-10-09T01:47:31;100045.38;;;5.96;73.65
58979;BME280;44763;50.464;30.612;2023-10-09T01:49:34;100050.41;;;5.96;73.63
58979;BME280;44763;50.464;30.612;2023-10-09T01:51:38;100058.41;;;5.96;73.41
58979;BME280;44763;50.464;30.612;2023-10-09T01:53:40;100052.24;;;5.94;73.52
58979;BME280;44763;50.464;30.612;2023-10-09T01:55:43;100054.18;;;5.91;73.63
58979;BME280;44763;50.464;30.612;2023-10-09T01:57:47;100056.24;;;5.86;73.97
58979;BME280;44763;50.464;30.612;2023-10-09T01:59:50;100058.23;;;5.86;73.97
58979;BME280;44763;50.464;30.612;2023-10-09T02:01:55;100049.06;;;5.84;73.85
58979;BME280;44763;50.464;30.612;2023-10-09T02:04:00;100059.95;;;5.86;73.32
58979;BME280;44763;50.464;30.612;2023-10-09T02:06:09;100065.09;;;5.84;73.32
58979;BME280;44763;50.464;30.612;2023-10-09T02:08:40;100068.70;;;5.83;73.56
58979;BME280;44763;50.464;30.612;2023-10-09T02:10:51;100069.92;;;5.83;73.58
58979;BME280;44763;50.464;30.612;2023-10-09T02:13:00;100070.94;;;5.85;73.74
58979;BME280;44763;50.464;30.612;2023-10-09T02:15:09;100074.48;;;5.82;73.79
58979;BME280;44763;50.464;30.612;2023-10-09T02:17:17;100065.27;;;5.89;73.67
58979;BME280;44763;50.464;30.612;2023-10-09T02:19:20;100077.90;;;5.98;73.49
58979;BME280;44763;50.464;30.612;2023-10-09T02:21:33;100068.61;;;5.99;73.33
58979;BME280;44763;50.464;30.612;2023-10-09T02:23:36;100067.39;;;5.96;73.36
58979;BME280;44763;50.464;30.612;2023-10-09T02:25:48;100077.76;;;5.93;72.83
58979;BME280;44763;50.464;30.612;2023-10-09T02:27:56;100086.96;;;5.89;72.90
58979;BME280;44763;50.464;30.612;2023-10-09T02:30:03;100088.39;;;5.87;73.09
58979;BME280;44763;50.464;30.612;2023-10-09T02:32:11;100086.73;;;5.87;72.90
58979;BME280;44763;50.464;30.612;2023-10-09T02:34:26;100093.52;;;5.85;72.86
58979;BME280;44763;50.464;30.612;2023-10-09T02:36:29;100092.73;;;5.85;72.84
58979;BME280;44763;50.464;30.612;2023-10-09T02:38:33;100075.84;;;5.76;72.85
58979;BME280;44763;50.464;30.612;2023-10-09T02:40:41;100097.89;;;5.84;73.04
58979;BME280;44763;50.464;30.612;2023-10-09T02:43:03;100102.83;;;5.84;73.19
58979;BME280;44763;50.464;30.612;2023-10-09T02:45:05;100098.52;;;5.83;73.31
58979;BME280;44763;50.464;30.612;2023-10-09T02:47:10;100101.79;;;5.82;73.55
58979;BME280;44763;50.464;30.612;2023-10-09T02:49:19;100092.43;;;5.81;73.76
58979;BME280;44763;50.464;30.612;2023-10-09T02:51:26;100102.88;;;5.80;73.83
58979;BME280;44763;50.464;30.612;2023-10-09T02:53:28;100101.03;;;5.78;74.20
58979;BME280;44763;50.464;30.612;2023-10-09T02:55:36;100102.17;;;5.77;74.49
58979;BME280;44763;50.464;30.612;2023-10-09T02:57:40;100103.91;;;5.86;74.39
58979;BME280;44763;50.464;30.612;2023-10-09T02:59:43;100106.52;;;5.94;74.46
58979;BME280;44763;50.464;30.612;2023-10-09T03:01:47;100111.10;;;5.98;74.33
58979;BME280;44763;50.464;30.612;2023-10-09T03:03:49;100112.25;;;5.95;74.70
58979;BME280;44763;50.464;30.612;2023-10-09T03:05:52;100107.83;;;5.94;74.71
58979;BME280;44763;50.464;30.612;2023-10-09T03:07:54;100110.17;;;5.92;74.56
58979;BME280;44763;50.464;30.612;2023-10-09T03:09:56;100117.34;;;5.89;74.68
58979;BME280;44763;50.464;30.612;2023-10-09T03:12:00;100114.05;;;5.88;74.62
58979;BME280;44763;50.464;30.612;2023-10-09T03:14:06;100119.48;;;5.87;74.63
58979;BME280;44763;50.464;30.612;2023-10-09T03:16:08;100120.24;;;5.86;74.89
58979;BME280;44763;50.464;30.612;2023-10-09T03:18:20;100120.29;;;5.86;75.08
58979;BME280;44763;50.464;30.612;2023-10-09T03:20:24;100119.25;;;5.84;75.19
58979;BME280;44763;50.464;30.612;2023-10-09T03:22:26;100120.89;;;5.82;75.02
58979;BME280;44763;50.464;30.612;2023-10-09T03:24:27;100123.71;;;5.80;74.95
58979;BME280;44763;50.464;30.612;2023-10-09T03:26:29;100121.79;;;5.80;75.09
58979;BME280;44763;50.464;30.612;2023-10-09T03:28:33;100114.69;;;5.84;74.76
58979;BME280;44763;50.464;30.612;2023-10-09T03:30:35;100126.99;;;5.86;74.20
58979;BME280;44763;50.464;30.612;2023-10-09T03:32:39;100124.08;;;5.83;74.34
58979;BME280;44763;50.464;30.612;2023-10-09T03:34:41;100112.77;;;5.72;74.34
58979;BME280;44763;50.464;30.612;2023-10-09T03:36:47;100124.02;;;5.74;74.67
58979;BME280;44763;50.464;30.612;2023-10-09T03:38:50;100124.09;;;5.69;75.17
58979;BME280;44763;50.464;30.612;2023-10-09T03:40:56;100128.66;;;5.62;75.71
58979;BME280;44763;50.464;30.612;2023-10-09T03:42:58;100141.96;;;5.56;76.32
58979;BME280;44763;50.464;30.612;2023-10-09T03:45:00;100134.57;;;5.48;77.31
58979;BME280;44763;50.464;30.612;2023-10-09T03:47:02;100145.02;;;5.43;77.92
58979;BME280;44763;50.464;30.612;2023-10-09T03:49:04;100149.64;;;5.44;78.24
58979;BME280;44763;50.464;30.612;2023-10-09T03:51:12;100153.09;;;5.45;78.97
58979;BME280;44763;50.464;30.612;2023-10-09T03:53:19;100154.23;;;5.40;80.20
58979;BME280;44763;50.464;30.612;2023-10-09T03:55:21;100159.77;;;5.30;80.72
58979;BME280;44763;50.464;30.612;2023-10-09T03:57:29;100156.50;;;5.22;81.15
58979;BME280;44763;50.464;30.612;2023-10-09T03:59:32;100160.04;;;5.16;82.29
58979;BME280;44763;50.464;30.612;2023-10-09T04:01:34;100157.16;;;5.08;82.64
58979;BME280;44763;50.464;30.612;2023-10-09T04:03:43;100164.91;;;5.01;83.15
58979;BME280;44763;50.464;30.612;2023-10-09T04:05:45;100164.48;;;5.03;84.23
58979;BME280;44763;50.464;30.612;2023-10-09T04:07:47;100159.00;;;5.07;84.61
58979;BME280;44763;50.464;30.612;2023-10-09T04:09:50;100172.27;;;5.06;84.43
58979;BME280;44763;50.464;30.612;2023-10-09T04:12:12;100168.91;;;4.99;85.29
58979;BME280;44763;50.464;30.612;2023-10-09T04:14:21;100172.02;;;4.93;86.34
58979;BME280;44763;50.464;30.612;2023-10-09T04:16:33;100173.48;;;4.84;86.46
58979;BME280;44763;50.464;30.612;2023-10-09T04:18:35;100180.05;;;4.83;87.18
58979;BME280;44763;50.464;30.612;2023-10-09T04:20:39;100186.30;;;4.85;87.08
58979;BME280;44763;50.464;30.612;2023-10-09T04:23:00;100180.67;;;4.93;87.36
58979;BME280;44763;50.464;30.612;2023-10-09T04:25:07;100187.46;;;4.95;87.37
58979;BME280;44763;50.464;30.612;2023-10-09T04:27:16;100188.28;;;4.94;87.08
58979;BME280;44763;50.464;30.612;2023-10-09T04:29:19;100188.88;;;4.90;87.33
58979;BME280;44763;50.464;30.612;2023-10-09T04:31:32;100193.67;;;4.86;87.58
58979;BME280;44763;50.464;30.612;2023-10-09T04:33:34;100197.80;;;4.85;87.58
58979;BME280;44763;50.464;30.612;2023-10-09T04:35:36;100181.86;;;4.74;87.49
58979;BME280;44763;50.464;30.612;2023-10-09T04:37:40;100195.02;;;4.88;87.99
58979;BME280;44763;50.464;30.612;2023-10-09T04:39:46;100195.52;;;4.97;87.78
58979;BME280;44763;50.464;30.612;2023-10-09T04:42:03;100201.41;;;5.03;87.06
58979;BME280;44763;50.464;30.612;2023-10-09T04:44:23;100209.77;;;5.03;86.61
58979;BME280;44763;50.464;30.612;2023-10-09T04:46:26;100203.27;;;5.01;86.96
58979;BME280;44763;50.464;30.612;2023-10-09T04:48:28;100204.02;;;4.99;86.79
58979;BME280;44763;50.464;30.612;2023-10-09T04:50:40;100210.41;;;5.02;86.47
58979;BME280;44763;50.464;30.612;2023-10-09T04:53:08;100220.80;;;5.26;86.04
58979;BME280;44763;50.464;30.612;2023-10-09T04:55:15;100227.20;;;5.75;84.81
58979;BME280;44763;50.464;30.612;2023-10-09T04:57:20;100228.81;;;6.36;81.03
58979;BME280;44763;50.464;30.612;2023-10-09T04:59:23;100215.83;;;6.70;78.43
58979;BME280;44763;50.464;30.612;2023-10-09T05:01:27;100234.37;;;6.86;75.81
58979;BME280;44763;50.464;30.612;2023-10-09T05:03:39;100242.59;;;6.74;75.35
58979;BME280;44763;50.464;30.612;2023-10-09T05:05:41;100237.27;;;6.53;75.85
58979;BME280;44763;50.464;30.612;2023-10-09T05:07:43;100250.13;;;6.73;76.32
58979;BME280;44763;50.464;30.612;2023-10-09T05:09:56;100248.81;;;6.89;74.46
58979;BME280;44763;50.464;30.612;2023-10-09T05:12:08;100258.73;;;6.91;74.13
58979;BME280;44763;50.464;30.612;2023-10-09T05:14:17;100261.23;;;6.91;73.61
58979;BME280;44763;50.464;30.612;2023-10-09T05:16:21;100268.38;;;6.87;73.39
58979;BME280;44763;50.464;30.612;2023-10-09T05:18:34;100269.71;;;6.76;73.51
58979;BME280;44763;50.464;30.612;2023-10-09T05:20:38;100265.03;;;6.62;73.78
58979;BME280;44763;50.464;30.612;2023-10-09T05:22:57;100273.10;;;6.41;74.35
58979;BME280;44763;50.464;30.612;2023-10-09T05:25:00;100274.89;;;6.37;75.19
58979;BME280;44763;50.464;30.612;2023-10-09T05:27:02;100268.56;;;6.56;75.63
58979;BME280;44763;50.464;30.612;2023-10-09T05:29:23;100254.30;;;6.88;74.26
58979;BME280;44763;50.464;30.612;2023-10-09T05:31:34;100263.64;;;7.58;70.99
58979;BME280;44763;50.464;30.612;2023-10-09T05:33:55;100271.68;;;8.16;68.71
58979;BME280;44763;50.464;30.612;2023-10-09T05:36:04;100267.24;;;8.78;66.90
58979;BME280;44763;50.464;30.612;2023-10-09T05:38:19;100279.33;;;9.55;61.80
58979;BME280;44763;50.464;30.612;2023-10-09T05:40:32;100279.94;;;10.00;59.60
58979;BME280;44763;50.464;30.612;2023-10-09T05:42:35;100278.52;;;10.34;57.85
58979;BME280;44763;50.464;30.612;2023-10-09T05:44:44;100280.70;;;10.58;56.40
58979;BME280;44763;50.464;30.612;2023-10-09T05:47:05;100277.04;;;10.82;56.03
58979;BME280;44763;50.464;30.612;2023-10-09T05:49:31;100275.31;;;10.97;53.90
58979;BME280;44763;50.464;30.612;2023-10-09T05:51:47;100277.02;;;11.08;53.54
58979;BME280;44763;50.464;30.612;2023-10-09T05:53:55;100276.84;;;11.30;53.04
58979;BME280;44763;50.464;30.612;2023-10-09T05:56:13;100285.05;;;11.61;51.79
58979;BME280;44763;50.464;30.612;2023-10-09T05:58:33;100274.39;;;11.79;51.04
58979;BME280;44763;50.464;30.612;2023-10-09T06:01:05;100279.38;;;11.92;50.28
58979;BME280;44763;50.464;30.612;2023-10-09T06:03:25;100277.35;;;11.63;50.15
58979;BME280;44763;50.464;30.612;2023-10-09T06:05:28;100287.69;;;11.04;51.18
58979;BME280;44763;50.464;30.612;2023-10-09T06:07:42;100283.85;;;10.25;53.20
58979;BME280;44763;50.464;30.612;2023-10-09T06:10:05;100286.48;;;9.59;55.16
58979;BME280;44763;50.464;30.612;2023-10-09T06:12:19;100287.18;;;9.08;56.88
58979;BME280;44763;50.464;30.612;2023-10-09T06:14:34;100303.02;;;8.64;58.29
58979;BME280;44763;50.464;30.612;2023-10-09T06:16:38;100309.36;;;8.29;60.02
58979;BME280;44763;50.464;30.612;2023-10-09T06:18:40;100315.92;;;7.98;61.44
58979;BME280;44763;50.464;30.612;2023-10-09T06:20:45;100308.81;;;7.72;62.65
58979;BME280;44763;50.464;30.612;2023-10-09T06:23:06;100322.83;;;7.52;63.45
58979;BME280;44763;50.464;30.612;2023-10-09T06:25:17;100326.26;;;7.35;64.43
58979;BME280;44763;50.464;30.612;2023-10-09T06:27:21;100317.20;;;7.18;64.60
58979;BME280;44763;50.464;30.612;2023-10-09T06:29:45;100322.70;;;7.12;65.08
58979;BME280;44763;50.464;30.612;2023-10-09T06:31:50;100323.27;;;6.99;65.41
58979;BME280;44763;50.464;30.612;2023-10-09T06:34:18;100345.10;;;7.00;65.67
58979;BME280;44763;50.464;30.612;2023-10-09T06:36:22;100342.05;;;6.95;66.54
58979;BME280;44763;50.464;30.612;2023-10-09T06:38:33;100343.17;;;6.90;66.74
58979;BME280;44763;50.464;30.612;2023-10-09T06:40:54;100345.39;;;6.87;67.23
58979;BME280;44763;50.464;30.612;2023-10-09T06:43:07;100334.61;;;6.90;67.20
58979;BME280;44763;50.464;30.612;2023-10-09T06:45:18;100337.20;;;6.96;67.09
58979;BME280;44763;50.464;30.612;2023-10-09T06:47:22;100334.20;;;7.08;66.54
58979;BME280;44763;50.464;30.612;2023-10-09T06:49:26;100335.29;;;7.18;65.50
58979;BME280;44763;50.464;30.612;2023-10-09T06:51:30;100336.45;;;7.28;65.06
58979;BME280;44763;50.464;30.612;2023-10-09T06:53:33;100327.82;;;7.35;64.63
58979;BME280;44763;50.464;30.612;2023-10-09T06:56:10;100331.56;;;7.45;64.10
58979;BME280;44763;50.464;30.612;2023-10-09T06:58:24;100336.15;;;7.53;63.63
58979;BME280;44763;50.464;30.612;2023-10-09T07:00:29;100330.05;;;7.57;63.60
58979;BME280;44763;50.464;30.612;2023-10-09T07:03:03;100332.19;;;7.64;63.09
58979;BME280;44763;50.464;30.612;2023-10-09T07:05:13;100328.52;;;7.71;63.02
58979;BME280;44763;50.464;30.612;2023-10-09T07:07:19;100323.40;;;7.74;62.08
58979;BME280;44763;50.464;30.612;2023-10-09T07:09:22;100328.36;;;7.69;62.24
58979;BME280;44763;50.464;30.612;2023-10-09T07:11:24;100338.79;;;7.76;61.92
58979;BME280;44763;50.464;30.612;2023-10-09T07:13:41;100338.54;;;7.72;61.60
58979;BME280;44763;50.464;30.612;2023-10-09T07:15:42;100343.48;;;7.73;62.25
58979;BME280;44763;50.464;30.612;2023-10-09T07:18:03;100346.90;;;7.81;62.62
58979;BME280;44763;50.464;30.612;2023-10-09T07:20:20;100354.18;;;7.92;62.16
58979;BME280;44763;50.464;30.612;2023-10-09T07:22:38;100344.77;;;7.97;62.01
58979;BME280;44763;50.464;30.612;2023-10-09T07:24:56;100345.84;;;8.00;61.38
58979;BME280;44763;50.464;30.612;2023-10-09T07:26:58;100347.39;;;8.05;61.35
58979;BME280;44763;50.464;30.612;2023-10-09T07:29:07;100341.08;;;8.11;60.91
58979;BME280;44763;50.464;30.612;2023-10-09T07:31:23;100348.16;;;8.14;60.61
58979;BME280;44763;50.464;30.612;2023-10-09T07:33:29;100352.35;;;8.16;60.19
58979;BME280;44763;50.464;30.612;2023-10-09T07:35:51;100357.93;;;8.17;59.98
58979;BME280;44763;50.464;30.612;2023-10-09T07:37:55;100358.86;;;8.18;59.49
58979;BME280;44763;50.464;30.612;2023-10-09T07:39:58;100364.89;;;8.20;59.68
58979;BME280;44763;50.464;30.612;2023-10-09T07:42:04;100370.95;;;8.22;59.42
58979;BME280;44763;50.464;30.612;2023-10-09T07:44:29;100367.46;;;8.25;59.70
58979;BME280;44763;50.464;30.612;2023-10-09T07:46:39;100363.23;;;8.28;59.01
58979;BME280;44763;50.464;30.612;2023-10-09T07:49:15;100370.33;;;8.31;58.66
58979;BME280;44763;50.464;30.612;2023-10-09T07:51:26;100364.38;;;8.33;58.57
58979;BME280;44763;50.464;30.612;2023-10-09T07:53:33;100366.32;;;8.35;58.59
58979;BME280;44763;50.464;30.612;2023-10-09T07:55:45;100376.91;;;8.37;58.78
58979;BME280;44763;50.464;30.612;2023-10-09T07:57:55;100376.30;;;8.41;57.84
58979;BME280;44763;50.464;30.612;2023-10-09T07:59:58;100378.20;;;8.42;57.07
58979;BME280;44763;50.464;30.612;2023-10-09T08:02:12;100379.09;;;8.38;56.82
58979;BME280;44763;50.464;30.612;2023-10-09T08:04:22;100377.02;;;8.31;56.99
58979;BME280;44763;50.464;30.612;2023-10-09T08:06:42;100378.88;;;8.28;57.12
58979;BME280;44763;50.464;30.612;2023-10-09T08:09:13;100376.30;;;8.31;56.63
58979;BME280;44763;50.464;30.612;2023-10-09T08:11:24;100375.11;;;8.39;56.02
58979;BME280;44763;50.464;30.612;2023-10-09T08:13:44;100360.39;;;8.38;55.39
58979;BME280;44763;50.464;30.612;2023-10-09T08:15:59;100381.81;;;8.48;54.96
58979;BME280;44763;50.464;30.612;2023-10-09T08:18:05;100381.14;;;8.45;54.78
58979;BME280;44763;50.464;30.612;2023-10-09T08:20:30;100375.48;;;8.46;54.95
58979;BME280;44763;50.464;30.612;2023-10-09T08:22:53;100376.02;;;8.47;54.99
58979;BME280;44763;50.464;30.612;2023-10-09T08:24:58;100369.75;;;8.48;54.54
58979;BME280;44763;50.464;30.612;2023-10-09T08:27:00;100365.85;;;8.51;54.39
58979;BME280;44763;50.464;30.612;2023-10-09T08:29:20;100368.28;;;8.54;54.27
58979;BME280;44763;50.464;30.612;2023-10-09T08:31:26;100375.65;;;8.56;54.33
58979;BME280;44763;50.464;30.612;2023-10-09T08:33:47;100379.78;;;8.61;54.13
58979;BME280;44763;50.464;30.612;2023-10-09T08:36:02;100377.35;;;8.66;53.84
58979;BME280;44763;50.464;30.612;2023-10-09T08:38:07;100383.98;;;8.73;53.33
58979;BME280;44763;50.464;30.612;2023-10-09T08:40:12;100388.80;;;8.79;52.82
58979;BME280;44763;50.464;30.612;2023-10-09T08:42:18;100386.20;;;8.82;53.00
58979;BME280;44763;50.464;30.612;2023-10-09T08:44:20;100384.36;;;8.85;53.24
58979;BME280;44763;50.464;30.612;2023-10-09T08:46:27;100379.88;;;8.88;53.39
58979;BME280;44763;50.464;30.612;2023-10-09T08:48:30;100369.45;;;8.88;53.15
58979;BME280;44763;50.464;30.612;2023-10-09T08:50:32;100385.16;;;8.94;52.66
58979;BME280;44763;50.464;30.612;2023-10-09T08:52:36;100380.44;;;8.95;52.46
58979;BME280;44763;50.464;30.612;2023-10-09T08:54:39;100383.33;;;8.98;52.35
58979;BME280;44763;50.464;30.612;2023-10-09T08:56:41;100385.59;;;9.00;52.30
58979;BME280;44763;50.464;30.612;2023-10-09T08:58:55;100379.84;;;9.04;52.02
58979;BME280;44763;50.464;30.612;2023-10-09T09:00:58;100379.70;;;9.05;52.20
58979;BME280;44763;50.464;30.612;2023-10-09T09:03:02;100381.06;;;9.08;52.27
58979;BME280;44763;50.464;30.612;2023-10-09T09:05:31;100383.41;;;9.14;52.33
58979;BME280;44763;50.464;30.612;2023-10-09T09:09:25;100385.95;;;9.18;50.98
58979;BME280;44763;50.464;30.612;2023-10-09T09:11:30;100380.75;;;9.20;50.89
58979;BME280;44763;50.464;30.612;2023-10-09T09:13:32;100385.61;;;9.27;51.08
58979;BME280;44763;50.464;30.612;2023-10-09T09:15:36;100388.63;;;9.29;50.76
58979;BME280;44763;50.464;30.612;2023-10-09T09:17:41;100386.04;;;9.28;50.51
58979;BME280;44763;50.464;30.612;2023-10-09T09:19:44;100386.73;;;9.27;49.94
58979;BME280;44763;50.464;30.612;2023-10-09T09:21:51;100395.40;;;9.21;48.72
58979;BME280;44763;50.464;30.612;2023-10-09T09:24:00;100383.88;;;9.10;48.60
58979;BME280;44763;50.464;30.612;2023-10-09T09:26:03;100395.27;;;9.16;48.11
58979;BME280;44763;50.464;30.612;2023-10-09T09:28:14;100389.59;;;9.08;48.26
58979;BME280;44763;50.464;30.612;2023-10-09T09:30:27;100401.51;;;9.14;48.39
58979;BME280;44763;50.464;30.612;2023-10-09T09:32:35;100396.59;;;9.13;48.55
58979;BME280;44763;50.464;30.612;2023-10-09T09:34:51;100396.59;;;9.14;48.36
58979;BME280;44763;50.464;30.612;2023-10-09T09:36:58;100399.88;;;9.14;48.57
58979;BME280;44763;50.464;30.612;2023-10-09T09:39:01;100398.08;;;9.19;48.48
58979;BME280;44763;50.464;30.612;2023-10-09T09:41:03;100398.40;;;9.24;47.50
58979;BME280;44763;50.464;30.612;2023-10-09T09:43:09;100393.88;;;9.25;46.84
58979;BME280;44763;50.464;30.612;2023-10-09T09:45:25;100397.98;;;9.23;45.83
58979;BME280;44763;50.464;30.612;2023-10-09T09:47:28;100392.98;;;9.23;45.58
58979;BME280;44763;50.464;30.612;2023-10-09T09:49:32;100388.64;;;9.23;44.74
58979;BME280;44763;50.464;30.612;2023-10-09T09:51:35;100391.70;;;9.22;44.94
58979;BME280;44763;50.464;30.612;2023-10-09T09:53:37;100383.38;;;9.24;45.24
58979;BME280;44763;50.464;30.612;2023-10-09T09:55:41;100382.23;;;9.28;44.63
58979;BME280;44763;50.464;30.612;2023-10-09T09:57:45;100385.83;;;9.30;44.56
58979;BME280;44763;50.464;30.612;2023-10-09T09:59:47;100390.58;;;9.33;43.97
58979;BME280;44763;50.464;30.612;2023-10-09T10:01:56;100389.81;;;9.34;44.41
58979;BME280;44763;50.464;30.612;2023-10-09T10:04:03;100383.52;;;9.34;44.73
58979;BME280;44763;50.464;30.612;2023-10-09T10:06:08;100380.33;;;9.36;43.91
58979;BME280;44763;50.464;30.612;2023-10-09T10:08:17;100380.08;;;9.37;43.17
58979;BME280;44763;50.464;30.612;2023-10-09T10:10:38;100386.38;;;9.36;43.55
58979;BME280;44763;50.464;30.612;2023-10-09T10:12:50;100383.60;;;9.42;43.77
58979;BME280;44763;50.464;30.612;2023-10-09T10:15:03;100379.83;;;9.46;43.43
58979;BME280;44763;50.464;30.612;2023-10-09T10:17:16;100372.63;;;9.49;42.75
58979;BME280;44763;50.464;30.612;2023-10-09T10:19:20;100386.86;;;9.48;42.44
58979;BME280;44763;50.464;30.612;2023-10-09T10:21:26;100379.63;;;9.47;42.26
58979;BME280;44763;50.464;30.612;2023-10-09T10:23:34;100384.89;;;9.45;42.77
58979;BME280;44763;50.464;30.612;2023-10-09T10:25:38;100377.02;;;9.45;42.41
58979;BME280;44763;50.464;30.612;2023-10-09T10:28:17;100369.16;;;9.45;42.58
58979;BME280;44763;50.464;30.612;2023-10-09T10:30:31;100365.77;;;9.47;42.29
58979;BME280;44763;50.464;30.612;2023-10-09T10:32:54;100372.09;;;9.49;42.51
58979;BME280;44763;50.464;30.612;2023-10-09T10:34:57;100364.82;;;9.52;42.22
58979;BME280;44763;50.464;30.612;2023-10-09T10:37:01;100365.21;;;9.51;42.06
58979;BME280;44763;50.464;30.612;2023-10-09T10:39:06;100364.71;;;9.48;42.10
58979;BME280;44763;50.464;30.612;2023-10-09T10:41:18;100357.38;;;9.47;42.10
58979;BME280;44763;50.464;30.612;2023-10-09T10:43:24;100361.73;;;9.48;42.09
58979;BME280;44763;50.464;30.612;2023-10-09T10:45:36;100368.08;;;9.51;42.21
58979;BME280;44763;50.464;30.612;2023-10-09T10:47:40;100368.86;;;9.54;41.74
58979;BME280;44763;50.464;30.612;2023-10-09T10:49:45;100365.42;;;9.54;41.77
58979;BME280;44763;50.464;30.612;2023-10-09T10:51:51;100361.38;;;9.54;42.07
58979;BME280;44763;50.464;30.612;2023-10-09T10:54:04;100359.52;;;9.56;42.44
58979;BME280;44763;50.464;30.612;2023-10-09T10:56:25;100357.45;;;9.62;42.63
58979;BME280;44763;50.464;30.612;2023-10-09T10:58:53;100357.91;;;9.67;42.07
58979;BME280;44763;50.464;30.612;2023-10-09T11:01:08;100354.10;;;9.69;41.96
58979;BME280;44763;50.464;30.612;2023-10-09T11:03:21;100346.19;;;9.71;42.34
58979;BME280;44763;50.464;30.612;2023-10-09T11:05:40;100338.95;;;9.74;42.03
58979;BME280;44763;50.464;30.612;2023-10-09T11:07:42;100340.83;;;9.75;42.13
58979;BME280;44763;50.464;30.612;2023-10-09T11:09:48;100339.16;;;9.77;42.33
58979;BME280;44763;50.464;30.612;2023-10-09T11:12:10;100330.10;;;9.80;42.01
58979;BME280;44763;50.464;30.612;2023-10-09T11:14:26;100327.59;;;9.82;42.22